Time;durP1;ratioP1;P1;durP2;ratioP2;P2;SDS_P1;SDS_P2;PMS_P1;PMS_P2;Temp;Humidity;BMP_temperature;BMP_pressure;BME280_temperature;BME280_humidity;BME280_pressure;Samples;Min_cycle;Max_cycle;Signal;HPM_P1;HPM_P2
2021/03/11 00:02:07;;;;;;;30.02;13.98;;;;;;;30.13;45.92;101229.38;5046676;28;66556;-32
2021/03/11 00:04:37;;;;;;;33.67;14.43;;;;;;;30.20;46.45;101227.50;5046805;28;69701;-32
2021/03/11 00:07:08;;;;;;;26.35;12.95;;;;;;;30.28;46.81;101229.19;5037793;28;66029;-37
2021/03/11 00:09:38;;;;;;;32.38;13.75;;;;;;;30.31;47.25;101226.06;5040275;28;69450;-32
2021/03/11 00:12:09;;;;;;;27.60;13.23;;;;;;;30.32;47.95;101213.38;5045492;28;65111;-32
2021/03/11 00:14:39;;;;;;;23.70;14.13;;;;;;;30.42;47.55;101221.91;5039026;28;70224;-33
2021/03/11 00:17:09;;;;;;;38.55;16.20;;;;;;;30.47;48.09;101227.53;5039863;28;66642;-33
2021/03/11 00:19:39;;;;;;;36.25;16.05;;;;;;;30.53;48.40;101234.78;5045217;28;69809;-33
2021/03/11 00:22:09;;;;;;;49.20;17.25;;;;;;;30.56;49.16;101230.84;5040952;28;65911;-35
2021/03/11 00:24:39;;;;;;;40.92;17.02;;;;;;;30.57;49.27;101233.34;5048524;28;69358;-33
2021/03/11 00:27:09;;;;;;;40.83;16.48;;;;;;;30.57;49.72;101236.06;5049178;28;64871;-32
2021/03/11 00:29:38;;;;;;;35.38;16.10;;;;;;;30.60;50.23;101238.34;5042805;28;69200;-32
2021/03/11 00:32:08;;;;;;;40.67;18.30;;;;;;;30.60;50.70;101245.63;5047538;28;66388;-33
2021/03/11 00:34:38;;;;;;;30.33;16.15;;;;;;;30.46;51.05;101242.09;5039286;28;70766;-33
2021/03/11 00:37:08;;;;;;;32.13;16.23;;;;;;;30.42;50.56;101244.41;5047656;28;65513;-37
2021/03/11 00:39:38;;;;;;;37.38;15.57;;;;;;;30.41;50.64;101245.44;5038311;28;69298;-33
2021/03/11 00:42:08;;;;;;;34.30;15.63;;;;;;;30.47;50.33;101249.19;5043476;28;65886;-33
2021/03/11 00:44:37;;;;;;;28.50;14.20;;;;;;;30.47;49.83;101243.75;5039066;28;70051;-36
2021/03/11 00:47:08;;;;;;;28.25;13.82;;;;;;;30.46;49.76;101252.94;5039456;28;66153;-34
2021/03/11 00:49:38;;;;;;;28.05;14.93;;;;;;;30.46;49.99;101261.88;5044394;28;69784;-34
2021/03/11 00:52:08;;;;;;;26.67;13.85;;;;;;;30.39;49.79;101252.91;5036872;28;65417;-33
2021/03/11 00:54:38;;;;;;;19.30;12.95;;;;;;;30.45;49.92;101273.75;5036177;28;69255;-34
2021/03/11 00:57:08;;;;;;;21.25;12.70;;;;;;;30.50;49.74;101268.53;5042686;28;66040;-33
2021/03/11 00:59:39;;;;;;;22.60;12.70;;;;;;;30.49;49.27;101271.47;5047217;28;70028;-35
2021/03/11 01:02:09;;;;;;;18.92;12.07;;;;;;;30.52;49.02;101284.59;5045091;28;65387;-33
2021/03/11 01:04:39;;;;;;;21.75;12.55;;;;;;;30.50;49.04;101270.41;5045286;28;69262;-33
2021/03/11 01:07:10;;;;;;;20.70;13.60;;;;;;;30.56;49.29;101276.88;5041426;28;65572;-33
2021/03/11 01:09:40;;;;;;;22.40;12.10;;;;;;;30.53;49.14;101275.41;5038268;28;69903;-33
2021/03/11 01:12:13;;;;;;;15.95;11.55;;;;;;;30.45;48.75;101257.53;5041717;28;66482;-33
2021/03/11 01:14:43;;;;;;;16.98;11.30;;;;;;;30.59;48.66;101288.13;5041968;28;70014;-35
2021/03/11 01:17:13;;;;;;;16.05;11.75;;;;;;;30.59;48.44;101285.44;5046831;28;65693;-33
2021/03/11 01:19:43;;;;;;;17.85;11.55;;;;;;;30.60;48.82;101286.25;5052571;27;69214;-34
2021/03/11 01:22:14;;;;;;;15.30;10.38;;;;;;;30.63;48.34;101285.84;5046807;28;65409;-33
2021/03/11 01:24:44;;;;;;;16.55;10.50;;;;;;;30.66;48.41;101280.81;5039093;28;69018;-34
2021/03/11 01:27:13;;;;;;;13.30;10.25;;;;;;;30.62;48.70;101285.00;5043485;28;65663;-34
2021/03/11 01:29:43;;;;;;;10.95;8.98;;;;;;;30.65;48.57;101286.47;5045523;28;70300;-34
2021/03/11 01:32:14;;;;;;;13.77;10.05;;;;;;;30.63;48.65;101286.66;5050388;27;66221;-33
2021/03/11 01:34:44;;;;;;;14.00;9.82;;;;;;;30.66;48.43;101293.53;5054899;28;69735;-33
2021/03/11 01:37:14;;;;;;;13.43;8.68;;;;;;;30.67;47.88;101298.75;5054610;28;65852;-33
2021/03/11 01:39:43;;;;;;;10.70;9.30;;;;;;;30.66;48.15;101291.66;5048985;28;70405;-32
2021/03/11 01:42:15;;;;;;;16.33;8.32;;;;;;;30.69;48.26;101296.66;5042098;28;65838;-33
2021/03/11 01:44:44;;;;;;;13.60;9.23;;;;;;;30.69;48.17;101293.94;5048938;28;68991;-34
2021/03/11 01:47:14;;;;;;;8.80;7.93;;;;;;;30.64;47.96;101280.19;5046678;28;66045;-33
2021/03/11 01:49:44;;;;;;;8.32;7.57;;;;;;;30.71;48.20;101286.44;5041700;28;69788;-33
2021/03/11 01:52:15;;;;;;;9.70;7.55;;;;;;;30.78;48.04;101293.72;5040238;28;65259;-33
2021/03/11 01:54:46;;;;;;;8.30;7.38;;;;;;;30.82;47.40;101293.13;5042563;28;69308;-34
2021/03/11 01:57:15;;;;;;;6.80;6.30;;;;;;;30.83;47.87;101293.97;5043128;28;64991;-33
2021/03/11 01:59:47;;;;;;;6.40;5.82;;;;;;;30.85;47.22;101289.19;5046872;28;70682;-33
2021/03/11 02:02:18;;;;;;;6.65;6.15;;;;;;;30.85;47.74;101294.59;5049585;27;66917;-33
2021/03/11 02:04:48;;;;;;;6.38;5.80;;;;;;;30.84;47.21;101293.78;5049461;28;68584;-33
2021/03/11 02:07:18;;;;;;;6.45;5.95;;;;;;;30.88;47.58;101295.00;5042097;28;67121;-32
2021/03/11 02:09:48;;;;;;;6.30;5.88;;;;;;;30.90;47.13;101303.75;5048091;28;69018;-33
2021/03/11 02:12:28;;;;;;;7.53;6.68;;;;;;;30.90;47.54;101305.66;5047979;28;65322;-33
2021/03/11 02:15:10;;;;;;;9.50;7.00;;;;;;;30.97;47.77;101303.75;5049203;28;70729;-34
2021/03/11 02:18:09;;;;;;;6.97;6.30;;;;;;;30.92;47.49;101304.38;5041938;27;64952;-34
2021/03/11 02:21:07;;;;;;;6.57;5.97;;;;;;;30.97;47.69;101301.03;4998937;28;69389;-34
2021/03/11 02:23:54;;;;;;;8.27;5.53;;;;;;;30.88;47.10;101288.75;5042032;28;65070;-35
2021/03/11 02:26:50;;;;;;;5.93;5.43;;;;;;;30.93;47.67;101297.09;5042578;28;69772;-36
2021/03/11 02:29:35;;;;;;;5.65;5.13;;;;;;;31.04;46.82;101304.56;5042065;28;66062;-33
2021/03/11 02:32:10;;;;;;;5.70;5.25;;;;;;;31.07;47.14;101314.16;5041462;28;70221;-33
2021/03/11 02:34:44;;;;;;;5.63;4.72;;;;;;;30.98;46.68;101300.00;5039411;28;65530;-33
2021/03/11 02:37:30;;;;;;;5.18;4.78;;;;;;;30.98;46.85;101299.16;5039811;28;70525;-33
2021/03/11 02:40:04;;;;;;;4.97;4.57;;;;;;;31.05;46.95;101300.81;5047961;28;66007;-34
2021/03/11 02:42:38;;;;;;;7.57;4.18;;;;;;;31.20;46.49;101316.81;5042819;28;70816;-35
2021/03/11 02:45:13;;;;;;;5.22;4.82;;;;;;;31.25;46.31;101310.75;5051164;28;65851;-33
2021/03/11 02:47:44;;;;;;;4.60;4.30;;;;;;;31.25;46.42;101313.47;5039414;28;69171;-33
2021/03/11 02:50:16;;;;;;;5.07;4.30;;;;;;;31.27;46.18;101317.66;5041496;28;65448;-33
2021/03/11 02:52:46;;;;;;;4.28;3.97;;;;;;;31.30;46.70;101313.69;5043037;28;68797;-33
2021/03/11 02:55:25;;;;;;;4.38;4.07;;;;;;;31.33;46.01;101303.22;5043388;28;66839;-35
2021/03/11 02:57:57;;;;;;;3.63;3.35;;;;;;;31.35;46.19;101300.31;5050665;28;69544;-34
2021/03/11 03:00:28;;;;;;;3.90;3.40;;;;;;;31.41;46.43;101294.06;5047318;28;65948;-32
2021/03/11 03:02:58;;;;;;;4.20;3.90;;;;;;;31.40;46.06;101292.41;5048968;28;69848;-33
2021/03/11 03:05:29;;;;;;;3.83;3.63;;;;;;;31.46;46.06;101302.41;5043282;28;66192;-33
2021/03/11 03:08:01;;;;;;;3.20;3.00;;;;;;;31.47;45.95;101290.50;5039839;28;70532;-33
2021/03/11 03:10:33;;;;;;;3.28;3.08;;;;;;;31.49;45.87;101288.41;5042930;28;65368;-33
2021/03/11 03:13:12;;;;;;;;;;;;;;;31.50;46.34;101292.78;5042908;28;69243;-34
2021/03/11 03:15:43;;;;;;;3.47;3.25;;;;;;;31.61;45.56;101283.97;5040347;28;67067;-33
2021/03/11 03:18:18;;;;;;;3.40;3.10;;;;;;;31.63;45.36;101281.06;5049233;28;69055;-33
2021/03/11 03:20:49;;;;;;;5.30;3.25;;;;;;;31.67;45.49;101284.16;5043337;28;65565;-33
2021/03/11 03:23:21;;;;;;;3.22;2.97;;;;;;;31.71;45.60;101285.41;5038263;28;69257;-33
2021/03/11 03:25:52;;;;;;;3.15;2.95;;;;;;;31.73;45.30;101278.72;5041694;28;65696;-33
2021/03/11 03:28:24;;;;;;;3.03;2.83;;;;;;;31.76;45.43;101275.56;5013162;28;69892;-33
2021/03/11 03:31:00;;;;;;;3.72;2.83;;;;;;;31.80;45.41;101265.09;5010271;28;66108;-32
2021/03/11 03:33:30;;;;;;;3.28;3.08;;;;;;;31.82;45.43;101271.16;4999196;28;69930;-33
2021/03/11 03:36:04;;;;;;;3.55;3.25;;;;;;;31.86;45.13;101263.41;5010508;28;66442;-32
2021/03/11 03:38:40;;;;;;;3.58;3.30;;;;;;;31.87;45.40;101265.88;5015898;28;69249;-33
2021/03/11 03:41:12;;;;;;;3.65;3.35;;;;;;;31.94;45.29;101265.88;5011058;28;67048;-33
2021/03/11 03:43:44;;;;;;;3.40;3.10;;;;;;;31.97;45.01;101260.03;5014830;28;69857;-33
2021/03/11 03:46:19;;;;;;;3.55;3.25;;;;;;;32.01;45.05;101258.53;5012430;28;65284;-33
2021/03/11 03:48:57;;;;;;;3.22;3.03;;;;;;;31.95;45.40;101241.22;5003295;28;70411;-36
2021/03/11 03:51:31;;;;;;;9.82;3.15;;;;;;;32.05;44.80;101241.59;5011577;28;65958;-33
2021/03/11 03:54:14;;;;;;;2.92;2.70;;;;;;;32.06;45.23;101242.41;5013354;28;70109;-33
2021/03/11 03:56:57;;;;;;;2.72;2.53;;;;;;;32.16;44.60;101247.38;5010023;28;65803;-33
2021/03/11 03:59:40;;;;;;;3.95;2.78;;;;;;;32.07;44.68;101207.97;5007798;28;69887;-33
2021/03/11 04:02:17;;;;;;;3.08;2.88;;;;;;;32.12;44.59;101202.72;5008962;28;67109;-34
2021/03/11 04:05:08;;;;;;;3.08;2.80;;;;;;;32.26;44.90;101213.25;4988415;28;70678;-32
2021/03/11 04:07:39;;;;;;;3.13;2.88;;;;;;;32.27;44.91;101217.63;4993529;28;65340;-36
2021/03/11 04:10:10;;;;;;;5.40;2.90;;;;;;;32.31;44.54;101207.13;4987774;28;69302;-35
2021/03/11 04:12:42;;;;;;;7.82;2.95;;;;;;;32.34;44.77;101198.53;4991940;28;65644;-33
2021/03/11 04:15:12;;;;;;;;;;;;;;;32.34;44.71;101198.53;4994089;28;69999;-33
2021/03/11 04:17:44;;;;;;;2.60;2.40;;;;;;;32.35;44.35;101174.97;4995067;28;65587;-34
2021/03/11 04:20:15;;;;;;;2.63;2.42;;;;;;;32.46;44.45;101176.97;4994827;28;69939;-34
2021/03/11 04:22:50;;;;;;;2.63;2.42;;;;;;;32.49;44.45;101180.06;4994510;28;66241;-34
2021/03/11 04:25:21;;;;;;;3.10;2.90;;;;;;;32.52;44.13;101180.69;5011491;28;70646;-34
2021/03/11 04:27:52;;;;;;;2.55;2.33;;;;;;;32.44;44.02;101151.91;5039586;28;68878;-34
2021/03/11 04:30:23;;;;;;;2.38;2.17;;;;;;;32.57;43.90;101170.81;5038243;28;68998;-33
2021/03/11 04:32:54;;;;;;;2.60;2.40;;;;;;;32.60;43.98;101158.66;5040952;28;66738;-35
2021/03/11 04:35:24;;;;;;;2.92;2.72;;;;;;;32.63;43.98;101150.06;5044594;28;69748;-33
2021/03/11 04:37:55;;;;;;;2.45;2.25;;;;;;;32.67;43.89;101146.66;5036497;28;65094;-34
2021/03/11 04:40:25;;;;;;;2.25;2.15;;;;;;;32.68;44.02;101142.03;5046385;28;69382;-37
2021/03/11 04:42:56;;;;;;;2.17;2.08;;;;;;;32.71;43.67;101137.00;5037035;28;65356;-33
2021/03/11 04:45:26;;;;;;;2.85;2.47;;;;;;;32.78;43.78;101133.38;5035284;28;70263;-34
2021/03/11 04:47:56;;;;;;;2.70;2.50;;;;;;;32.80;43.92;101123.94;5035313;28;65951;-33
2021/03/11 04:50:27;;;;;;;2.17;2.08;;;;;;;32.80;43.80;101123.94;5036199;28;69219;-33
2021/03/11 04:52:58;;;;;;;2.55;2.35;;;;;;;32.85;43.66;101121.38;5047286;28;66044;-33
2021/03/11 04:55:29;;;;;;;2.28;2.17;;;;;;;32.86;43.78;101112.16;5056933;28;69425;-33
2021/03/11 04:57:59;;;;;;;2.10;1.90;;;;;;;32.89;43.44;101100.81;5057062;28;65957;-35
2021/03/11 05:00:32;;;;;;;2.50;2.03;;;;;;;32.94;43.26;101103.69;5055190;28;69674;-32
2021/03/11 05:03:08;;;;;;;1.80;1.70;;;;;;;32.95;43.20;101093.66;5040663;27;66174;-34
2021/03/11 05:05:44;;;;;;;3.83;2.15;;;;;;;33.02;43.62;101088.16;5037178;28;69695;-34
2021/03/11 05:08:14;;;;;;;;;;;;;;;33.05;43.15;101082.28;5039484;28;66238;-35
2021/03/11 05:10:46;;;;;;;2.67;1.95;;;;;;;33.10;43.11;101082.41;5040883;28;70206;-34
2021/03/11 05:13:18;;;;;;;1.98;1.88;;;;;;;33.10;42.79;101079.69;5033594;28;66769;-34
2021/03/11 05:15:49;;;;;;;2.22;1.90;;;;;;;33.09;43.14;101070.69;5036335;28;69899;-33
2021/03/11 05:18:20;;;;;;;2.00;1.87;;;;;;;33.09;42.91;101067.16;5043595;28;66331;-34
2021/03/11 05:20:52;;;;;;;1.98;1.80;;;;;;;33.17;42.89;101057.84;5035594;28;69224;-33
2021/03/11 05:23:23;;;;;;;1.75;1.65;;;;;;;33.19;42.98;101053.84;5037757;28;66173;-33
2021/03/11 05:25:55;;;;;;;3.17;1.90;;;;;;;33.20;42.80;101047.31;5033969;28;70050;-35
2021/03/11 05:28:26;;;;;;;2.65;1.58;;;;;;;33.25;42.96;101047.47;5036418;28;67281;-34
2021/03/11 05:31:00;;;;;;;4.60;1.75;;;;;;;33.27;43.04;101042.63;5035688;28;69751;-34
2021/03/11 05:33:30;;;;;;;1.88;1.70;;;;;;;33.28;42.70;101038.84;5035383;28;65478;-34
2021/03/11 05:36:00;;;;;;;1.77;1.42;;;;;;;33.30;43.13;101030.47;5048200;28;70571;-34
2021/03/11 05:38:31;;;;;;;4.68;1.60;;;;;;;33.32;42.69;101023.72;5036799;28;66092;-33
2021/03/11 05:41:05;;;;;;;1.83;1.73;;;;;;;33.36;42.73;101016.75;5047170;28;69922;-33
2021/03/11 05:43:56;;;;;;;5.70;1.60;;;;;;;33.37;42.83;101004.81;5035499;28;65296;-34
2021/03/11 05:46:29;;;;;;;1.35;1.25;;;;;;;33.31;42.64;100989.44;5034631;28;69366;-33
2021/03/11 05:49:00;;;;;;;1.70;1.60;;;;;;;33.47;42.58;100992.53;5036890;28;65477;-34
2021/03/11 05:51:30;;;;;;;1.75;1.65;;;;;;;33.48;42.90;100996.91;5035883;28;70009;-33
2021/03/11 05:54:02;;;;;;;1.88;1.70;;;;;;;33.48;42.59;100999.63;5041594;28;65228;-34
2021/03/11 05:56:33;;;;;;;4.07;1.50;;;;;;;33.48;42.74;100991.47;5043709;28;69726;-34
2021/03/11 05:59:06;;;;;;;1.60;1.50;;;;;;;33.55;42.38;100990.31;5034391;28;66000;-34
2021/03/11 06:01:36;;;;;;;2.95;2.13;;;;;;;33.54;42.30;100985.09;5041329;28;70656;-37
2021/03/11 06:04:08;;;;;;;1.75;1.65;;;;;;;33.54;42.59;100971.50;5039490;28;65402;-34
2021/03/11 06:06:38;;;;;;;2.08;1.58;;;;;;;33.59;42.31;100968.91;5039256;28;70238;-34
2021/03/11 06:09:11;;;;;;;1.38;1.27;;;;;;;33.62;42.34;100956.72;5033853;28;66031;-33
2021/03/11 06:11:44;;;;;;;1.73;1.58;;;;;;;33.60;42.32;100954.25;5036981;28;69227;-34
2021/03/11 06:14:19;;;;;;;1.55;1.30;;;;;;;33.58;42.15;100942.78;5034784;28;65971;-38
2021/03/11 06:17:08;;;;;;;2.15;1.40;;;;;;;33.66;41.95;100953.31;5045273;28;69889;-33
2021/03/11 06:19:39;;;;;;;1.88;1.15;;;;;;;33.70;42.36;100943.59;5037025;28;65968;-34
2021/03/11 06:22:10;;;;;;;1.83;1.58;;;;;;;33.75;42.34;100940.97;5040107;28;70195;-33
2021/03/11 06:24:47;;;;;;;1.40;1.13;;;;;;;33.76;42.20;100937.19;5043251;28;65280;-32
2021/03/11 06:27:18;;;;;;;1.48;1.23;;;;;;;33.80;42.08;100938.38;5049701;28;69939;-33
2021/03/11 06:29:50;;;;;;;1.30;1.20;;;;;;;33.87;42.08;100932.78;5037106;28;66199;-34
2021/03/11 06:32:21;;;;;;;1.25;1.15;;;;;;;33.87;42.17;100927.34;5045603;28;68935;-35
2021/03/11 06:34:53;;;;;;;1.42;1.20;;;;;;;33.89;41.90;100919.78;5040049;28;64662;-32
2021/03/11 06:37:40;;;;;;;2.33;1.60;;;;;;;33.94;41.87;100924.53;5043681;28;69292;-33
2021/03/11 06:40:16;;;;;;;1.52;1.42;;;;;;;33.96;41.63;100908.75;5036521;28;65983;-33
2021/03/11 06:42:48;;;;;;;1.60;1.40;;;;;;;34.01;41.84;100901.53;5054664;28;69992;-33
2021/03/11 06:45:28;;;;;;;1.90;1.40;;;;;;;34.04;41.62;100900.22;5053022;28;66912;-34
2021/03/11 06:48:24;;;;;;;1.52;1.40;;;;;;;34.03;41.72;100887.69;5039940;28;69862;-34
2021/03/11 06:51:00;;;;;;;1.70;1.60;;;;;;;34.12;41.52;100880.00;5055433;28;65950;-33
2021/03/11 06:53:31;;;;;;;1.70;1.33;;;;;;;34.15;41.50;100877.59;5050112;28;69887;-35
2021/03/11 06:56:19;;;;;;;1.50;1.40;;;;;;;34.18;41.44;100862.69;5044812;28;65111;-34
2021/03/11 06:59:05;;;;;;;4.10;1.73;;;;;;;34.17;41.18;100850.16;5042846;28;69915;-34
2021/03/11 07:01:48;;;;;;;1.80;1.38;;;;;;;34.30;41.16;100854.44;5043294;28;66494;-33
2021/03/11 07:04:24;;;;;;;1.65;1.30;;;;;;;34.32;41.31;100849.59;5052639;28;69382;-34
2021/03/11 07:06:55;;;;;;;1.50;1.40;;;;;;;34.36;41.37;100839.88;5037136;28;66806;-34
2021/03/11 07:09:40;;;;;;;1.15;0.93;;;;;;;34.41;41.13;100838.06;5038736;28;69900;-33
2021/03/11 07:12:11;;;;;;;1.45;1.30;;;;;;;34.42;41.27;100825.28;5037889;28;65568;-34
2021/03/11 07:14:43;;;;;;;2.08;1.45;;;;;;;34.48;40.82;100829.72;5042295;28;70625;-34
2021/03/11 07:17:26;;;;;;;1.48;1.38;;;;;;;34.41;40.88;100807.28;5040233;28;66944;-35
2021/03/11 07:20:16;;;;;;;4.70;1.23;;;;;;;34.55;40.93;100826.84;5055965;28;70710;-34
2021/03/11 07:23:00;;;;;;;2.13;1.30;;;;;;;34.59;40.94;100820.69;5053251;28;66165;-34
2021/03/11 07:25:37;;;;;;;1.30;1.20;;;;;;;34.61;40.91;100813.09;5045280;27;70721;-34
2021/03/11 07:28:22;;;;;;;4.15;1.15;;;;;;;34.58;40.74;100791.81;5036216;28;66770;-33
2021/03/11 07:30:59;;;;;;;2.92;1.00;;;;;;;34.69;40.77;100815.41;5050076;27;70255;-33
2021/03/11 07:33:33;;;;;;;3.63;1.40;;;;;;;34.68;40.82;100796.56;5027289;28;65355;-34
2021/03/11 07:36:07;;;;;;;3.10;1.65;;;;;;;34.80;40.40;100793.75;5044602;28;69889;-33
2021/03/11 07:38:40;;;;;;;1.17;0.98;;;;;;;34.82;40.75;100786.16;5038376;28;66742;-35
2021/03/11 07:41:13;;;;;;;3.13;1.48;;;;;;;34.83;40.67;100790.56;5043582;28;69165;-33
2021/03/11 07:43:45;;;;;;;1.70;1.60;;;;;;;34.92;40.83;100798.03;5038188;28;66513;-33
2021/03/11 07:46:17;;;;;;;1.88;1.55;;;;;;;34.94;40.45;100797.81;5044084;28;70073;-34
2021/03/11 07:48:49;;;;;;;1.65;1.55;;;;;;;34.99;40.42;100794.31;5040986;27;66014;-34
2021/03/11 07:51:23;;;;;;;2.13;2.03;;;;;;;35.02;40.29;100796.53;5046070;28;70195;-34
2021/03/11 07:53:57;;;;;;;1.80;1.70;;;;;;;35.03;40.27;100787.31;5023406;28;64221;-34
2021/03/11 07:56:28;;;;;;;2.67;2.47;;;;;;;35.09;40.13;100792.59;5043173;28;69369;-33
2021/03/11 07:59:09;;;;;;;2.35;2.08;;;;;;;35.12;40.55;100781.19;5040508;28;66992;-34
2021/03/11 08:01:56;;;;;;;2.08;1.98;;;;;;;35.16;39.91;100780.69;5038786;28;69964;-33
2021/03/11 08:04:35;;;;;;;2.35;2.15;;;;;;;35.21;40.34;100778.84;5038284;28;66700;-33
2021/03/11 08:07:20;;;;;;;2.30;2.10;;;;;;;35.21;39.98;100775.28;5038666;28;69304;-35
2021/03/11 08:09:53;;;;;;;2.70;2.42;;;;;;;35.25;40.29;100779.19;5037706;28;66124;-33
2021/03/11 08:12:37;;;;;;;2.47;2.25;;;;;;;35.31;39.85;100775.44;5040284;28;69576;-36
2021/03/11 08:15:28;;;;;;;3.70;2.03;;;;;;;35.29;39.96;100772.13;5041774;28;66361;-32
2021/03/11 08:18:01;;;;;;;2.53;2.30;;;;;;;35.33;40.51;100759.66;5044288;28;70421;-35
2021/03/11 08:20:31;;;;;;;5.63;2.83;;;;;;;35.38;39.99;100767.88;5036485;28;66079;-34
2021/03/11 08:23:04;;;;;;;2.83;2.45;;;;;;;35.44;40.25;100764.16;5043812;28;69813;-33
2021/03/11 08:25:36;;;;;;;;;;;;;;;35.44;40.13;100761.44;5050254;28;66062;-33
2021/03/11 08:28:09;;;;;;;;;;;;;;;35.57;40.11;100766.50;5054108;28;70333;-34
2021/03/11 08:30:40;;;;;;;3.20;2.58;;;;;;;35.60;40.05;100765.16;5042662;28;64882;-33
2021/03/11 08:33:11;;;;;;;3.72;2.60;;;;;;;35.65;39.84;100772.59;5052622;28;69845;-34
2021/03/11 08:35:45;;;;;;;6.13;2.25;;;;;;;35.66;40.16;100768.78;5040756;28;65905;-34
2021/03/11 08:38:45;;;;;;;2.85;2.45;;;;;;;35.66;40.34;100768.78;5044938;28;69861;-34
2021/03/11 08:41:28;;;;;;;2.30;2.10;;;;;;;35.73;39.93;100769.41;5053239;28;65944;-35
2021/03/11 08:44:02;;;;;;;1.77;1.67;;;;;;;35.78;40.16;100766.75;5053374;28;70430;-33
2021/03/11 08:46:53;;;;;;;2.55;2.35;;;;;;;35.80;39.86;100754.50;5054294;28;66609;-34
2021/03/11 08:49:44;;;;;;;3.63;2.50;;;;;;;35.83;39.81;100761.34;5039837;28;69005;-34
2021/03/11 08:52:41;;;;;;;2.05;1.85;;;;;;;35.87;39.93;100767.91;5042090;28;66069;-34
2021/03/11 08:55:35;;;;;;;2.72;2.40;;;;;;;35.90;39.62;100763.84;5052362;28;68854;-32
2021/03/11 08:58:28;;;;;;;2.90;2.22;;;;;;;35.94;39.42;100760.38;5042949;28;65436;-34
2021/03/11 09:01:14;;;;;;;3.60;2.20;;;;;;;35.97;40.18;100762.56;5048925;28;69601;-34
2021/03/11 09:03:51;;;;;;;3.45;2.22;;;;;;;36.02;39.74;100769.97;5041952;28;65949;-33
2021/03/11 09:07:01;;;;;;;5.68;2.30;;;;;;;36.06;39.67;100776.59;5037675;28;70596;-34
2021/03/11 09:09:50;;;;;;;3.42;2.40;;;;;;;36.10;39.74;100785.09;5035212;28;65458;-33
2021/03/11 09:12:37;;;;;;;4.22;2.22;;;;;;;36.16;39.38;100784.06;5046593;28;68380;-33
2021/03/11 09:15:23;;;;;;;2.22;1.67;;;;;;;36.20;39.33;100785.19;5037896;28;66115;-34
2021/03/11 09:18:00;;;;;;;2.65;2.45;;;;;;;36.22;39.72;100781.13;5063996;27;69072;-33
2021/03/11 09:20:33;;;;;;;3.47;2.10;;;;;;;36.26;39.29;100786.06;5049931;28;65910;-34
2021/03/11 09:23:04;;;;;;;2.67;2.15;;;;;;;36.27;39.58;100794.00;5042845;28;70056;-35
2021/03/11 09:25:41;;;;;;;3.40;2.20;;;;;;;36.27;39.72;100791.25;5038247;28;65620;-33
2021/03/11 09:28:23;;;;;;;3.47;2.00;;;;;;;36.34;39.58;100793.78;5040885;28;69893;-35
2021/03/11 09:30:56;;;;;;;2.97;1.92;;;;;;;36.34;39.33;100791.88;5022047;28;65409;-34
2021/03/11 09:33:41;;;;;;;3.55;1.70;;;;;;;36.35;39.85;100796.25;5035234;28;69826;-34
2021/03/11 09:36:21;;;;;;;5.10;2.15;;;;;;;36.41;39.69;100802.56;5032548;28;65809;-34
2021/03/11 09:38:59;;;;;;;3.58;1.90;;;;;;;36.41;39.34;100791.66;5050760;27;69740;-36
2021/03/11 09:41:32;;;;;;;4.10;1.95;;;;;;;36.43;39.25;100794.94;5053433;28;65454;-33
2021/03/11 09:44:10;;;;;;;2.22;1.65;;;;;;;36.44;39.06;100802.91;5038289;28;70651;-34
2021/03/11 09:46:41;;;;;;;4.15;1.67;;;;;;;36.43;39.77;100809.44;5065396;28;66101;-37
2021/03/11 09:49:21;;;;;;;2.83;2.47;;;;;;;36.47;39.29;100809.75;5051806;27;69621;-40
2021/03/11 09:52:03;;;;;;;3.35;2.25;;;;;;;36.49;39.82;100804.00;5047088;28;66219;-37
2021/03/11 09:54:33;;;;;;;6.00;2.13;;;;;;;36.51;39.57;100810.06;5048357;28;69824;-35
2021/03/11 09:57:04;;;;;;;3.20;2.10;;;;;;;36.51;39.38;100813.59;5040453;28;65105;-34
2021/03/11 09:59:33;;;;;;;2.40;1.70;;;;;;;36.52;39.34;100814.41;5038418;28;69604;-34
2021/03/11 10:02:08;;;;;;;2.55;2.05;;;;;;;36.52;39.84;100828.06;5044583;28;66209;-35
2021/03/11 10:04:40;;;;;;;2.90;2.00;;;;;;;36.52;39.53;100814.41;5036744;28;70095;-36
2021/03/11 10:07:15;;;;;;;4.30;1.80;;;;;;;36.50;39.59;100822.03;5046057;27;65191;-36
2021/03/11 10:09:52;;;;;;;4.15;2.30;;;;;;;36.34;40.13;100805.53;5042966;28;70865;-36
2021/03/11 10:12:37;;;;;;;14.32;5.05;;;;;;;36.08;41.27;100820.03;5038630;28;65458;-36
2021/03/11 10:15:10;;;;;;;17.25;6.88;;;;;;;35.80;41.40;100819.13;5038923;28;70384;-34
2021/03/11 10:17:42;;;;;;;9.85;6.80;;;;;;;35.71;42.16;100831.59;5045144;28;65672;-33
2021/03/11 10:20:28;;;;;;;19.65;7.53;;;;;;;35.60;42.88;100840.75;5045995;28;69001;-35
2021/03/11 10:23:21;;;;;;;13.88;7.10;;;;;;;35.51;43.13;100849.34;5038952;28;65401;-33
2021/03/11 10:26:13;;;;;;;12.65;7.13;;;;;;;35.40;42.92;100850.28;5046814;28;70004;-33
2021/03/11 10:28:51;;;;;;;23.58;7.80;;;;;;;35.35;42.92;100850.19;5042615;28;66510;-34
2021/03/11 10:31:23;;;;;;;17.55;7.97;;;;;;;35.29;43.11;100856.66;5038523;28;70050;-34
2021/03/11 10:34:09;;;;;;;23.20;8.77;;;;;;;35.22;43.42;100856.03;5048647;28;66136;-32
2021/03/11 10:36:39;;;;;;;22.10;9.13;;;;;;;35.18;43.40;100869.31;5045130;28;69934;-32
2021/03/11 10:39:14;;;;;;;23.33;10.98;;;;;;;35.10;43.90;100865.16;5048635;28;66483;-33
2021/03/11 10:42:04;;;;;;;22.10;10.55;;;;;;;35.04;44.24;100866.09;5048347;28;69930;-33
2021/03/11 10:44:39;;;;;;;13.02;8.95;;;;;;;35.06;43.63;100866.69;5050416;28;66778;-34
2021/03/11 10:47:17;;;;;;;20.80;8.65;;;;;;;34.88;44.29;100851.41;5048465;28;71077;-34
2021/03/11 10:49:47;;;;;;;24.13;9.10;;;;;;;34.99;44.41;100879.63;5056222;28;65817;-33
2021/03/11 10:52:18;;;;;;;31.52;11.55;;;;;;;34.94;44.49;100882.31;5051577;28;69376;-35
2021/03/11 10:54:48;;;;;;;28.08;11.88;;;;;;;34.94;44.60;100887.75;5045942;28;65913;-35
2021/03/11 10:57:21;;;;;;;20.15;9.40;;;;;;;34.91;44.92;100880.91;5051983;28;69776;-33
2021/03/11 10:59:57;;;;;;;18.98;8.48;;;;;;;34.80;45.27;100875.50;5055680;28;66038;-36
2021/03/11 11:02:29;;;;;;;21.52;8.82;;;;;;;34.85;45.04;100900.13;5047994;28;70288;-36
2021/03/11 11:05:04;;;;;;;30.77;9.70;;;;;;;34.81;45.23;100894.34;5046032;28;65803;-36
2021/03/11 11:07:42;;;;;;;28.35;10.18;;;;;;;34.83;45.94;100902.28;5036966;28;70485;-34
2021/03/11 11:10:19;;;;;;;24.70;10.10;;;;;;;34.78;46.65;100904.91;5045605;28;66126;-37
2021/03/11 11:12:50;;;;;;;19.63;9.63;;;;;;;34.72;46.77;100911.34;5048965;28;69975;-38
2021/03/11 11:15:26;;;;;;;23.95;8.73;;;;;;;34.59;45.70;100916.03;5052336;28;66201;-34
2021/03/11 11:18:02;;;;;;;23.45;7.40;;;;;;;34.44;45.38;100922.00;5047413;28;70666;-33
2021/03/11 11:20:36;;;;;;;13.15;6.90;;;;;;;34.28;44.63;100921.97;5053926;28;65985;-36
2021/03/11 11:23:07;;;;;;;16.75;6.28;;;;;;;34.10;43.81;100918.34;5050822;28;69234;-35
2021/03/11 11:25:41;;;;;;;37.33;5.90;;;;;;;34.04;43.69;100932.88;5043816;28;68517;-38
2021/03/11 11:28:16;;;;;;;6.90;5.25;;;;;;;33.95;42.39;100934.31;5050072;28;69309;-36
2021/03/11 11:30:47;;;;;;;7.03;5.20;;;;;;;33.89;41.67;100932.56;5051807;28;66269;-35
2021/03/11 11:33:19;;;;;;;8.25;4.75;;;;;;;33.84;41.48;100940.63;5049551;28;69277;-36
2021/03/11 11:35:52;;;;;;;9.40;4.07;;;;;;;33.66;40.55;100931.53;5045134;28;66917;-35
2021/03/11 11:38:22;;;;;;;11.65;5.10;;;;;;;33.63;42.01;100942.06;5043421;28;69737;-36
2021/03/11 11:40:52;;;;;;;12.13;5.13;;;;;;;33.50;41.45;100938.50;5048819;28;65223;-35
2021/03/11 11:43:22;;;;;;;5.80;4.53;;;;;;;33.48;41.21;100950.66;5041751;28;69291;-36
2021/03/11 11:45:51;;;;;;;8.30;4.47;;;;;;;33.42;40.43;100948.91;5053489;28;66027;-35
2021/03/11 11:48:23;;;;;;;14.43;4.00;;;;;;;33.29;39.71;100958.94;5040944;28;69922;-35
2021/03/11 11:50:58;;;;;;;8.15;4.60;;;;;;;33.26;38.84;100967.56;5042342;28;65298;-36
2021/03/11 11:53:28;;;;;;;5.80;3.83;;;;;;;33.16;38.54;100975.47;5043087;28;69253;-35
2021/03/11 11:56:07;;;;;;;4.05;3.65;;;;;;;33.12;38.60;100979.69;5040109;28;65548;-37
2021/03/11 11:58:43;;;;;;;11.23;3.47;;;;;;;33.03;38.38;100981.13;5048557;28;70058;-38